createdAt,value
2022-12-07T00:01:07.682Z,8.25
2022-12-07T00:03:35.848Z,8.13
2022-12-07T00:06:05.558Z,8.07
2022-12-07T00:08:34.058Z,9.02
2022-12-07T00:11:05.308Z,8.60
2022-12-07T00:13:34.048Z,8.23
2022-12-07T00:16:03.795Z,8.65
2022-12-07T00:18:31.798Z,8.32
2022-12-07T00:21:03.212Z,9.02
2022-12-07T00:23:31.078Z,8.50
2022-12-07T00:26:05.947Z,8.32
2022-12-07T00:28:34.745Z,8.55
2022-12-07T00:31:05.366Z,9.05
2022-12-07T00:33:33.424Z,8.80
2022-12-07T00:36:02.189Z,8.25
2022-12-07T00:38:31.543Z,8.80
2022-12-07T00:41:00.727Z,9.93
2022-12-07T00:43:30.525Z,9.88
2022-12-07T00:45:58.995Z,10.23
2022-12-07T00:48:27.322Z,9.38
2022-12-07T00:50:55.372Z,11.50
2022-12-07T00:53:23.295Z,10.50
2022-12-07T00:55:51.191Z,9.93
2022-12-07T00:58:19.089Z,10.68
2022-12-07T01:00:48.399Z,11.20
2022-12-07T01:03:17.779Z,10.00
2022-12-07T01:05:51.821Z,10.60
2022-12-07T01:08:19.873Z,11.35
2022-12-07T01:10:47.984Z,12.65
2022-12-07T01:13:16.323Z,11.68
2022-12-07T01:15:44.662Z,11.32
2022-12-07T01:18:14.090Z,11.55
2022-12-07T01:20:42.157Z,11.65
2022-12-07T01:23:09.981Z,10.68
2022-12-07T01:25:37.836Z,12.20
2022-12-07T01:28:06.026Z,12.80
2022-12-07T01:30:33.863Z,12.38
2022-12-07T01:33:01.718Z,11.93
2022-12-07T01:35:31.056Z,11.48
2022-12-07T01:37:58.871Z,12.18
2022-12-07T01:40:26.748Z,12.35
2022-12-07T01:42:54.577Z,12.82
2022-12-07T01:45:46.803Z,11.75
2022-12-07T01:48:18.053Z,11.85
2022-12-07T01:50:51.096Z,11.10
2022-12-07T01:53:19.783Z,11.98
2022-12-07T01:55:52.273Z,11.57
2022-12-07T01:58:20.348Z,11.82
2022-12-07T02:00:48.525Z,12.15
2022-12-07T02:03:21.548Z,12.10
2022-12-07T02:05:51.882Z,12.82
2022-12-07T02:08:20.446Z,13.85
2022-12-07T02:10:48.346Z,12.20
2022-12-07T02:13:19.578Z,12.90
2022-12-07T02:16:01.861Z,13.15
2022-12-07T02:18:41.118Z,13.60
2022-12-07T02:21:15.040Z,12.82
2022-12-07T02:23:52.535Z,13.35
2022-12-07T02:27:00.241Z,14.05
2022-12-07T02:29:32.705Z,13.55
2022-12-07T02:32:08.774Z,12.82
2022-12-07T02:34:49.508Z,12.50
2022-12-07T02:37:27.823Z,13.38
2022-12-07T02:40:01.129Z,13.52
2022-12-07T02:42:34.142Z,14.05
2022-12-07T02:45:04.127Z,13.43
2022-12-07T02:47:33.985Z,13.63
2022-12-07T02:50:04.445Z,12.85
2022-12-07T02:52:32.490Z,13.57
2022-12-07T02:55:00.724Z,13.43
2022-12-07T02:57:53.616Z,13.07
2022-12-07T03:00:23.169Z,14.00
2022-12-07T03:02:56.384Z,13.45
2022-12-07T03:05:48.328Z,12.85
2022-12-07T03:08:23.607Z,13.98
2022-12-07T03:10:58.937Z,14.73
2022-12-07T03:13:31.309Z,13.45
2022-12-07T03:16:07.087Z,13.35
2022-12-07T03:18:39.716Z,14.25
2022-12-07T03:21:13.458Z,13.75
2022-12-07T03:23:43.292Z,13.88
2022-12-07T03:26:14.005Z,14.07
2022-12-07T03:28:47.516Z,13.13
2022-12-07T03:31:21.839Z,13.65
2022-12-07T03:33:55.353Z,13.40
2022-12-07T03:36:28.408Z,13.85
2022-12-07T03:39:01.617Z,13.68
2022-12-07T03:41:32.834Z,12.88
2022-12-07T03:44:01.254Z,12.90
2022-12-07T03:46:39.017Z,13.02
2022-12-07T03:49:12.851Z,13.68
2022-12-07T03:51:46.007Z,12.50
2022-12-07T03:54:19.541Z,12.77
2022-12-07T03:56:49.006Z,12.60
2022-12-07T03:59:17.738Z,13.63
2022-12-07T04:01:53.307Z,12.00
2022-12-07T04:04:21.189Z,13.00
2022-12-07T04:06:48.946Z,13.10
2022-12-07T04:09:17.489Z,12.55
2022-12-07T04:11:45.764Z,12.35
2022-12-07T04:14:22.715Z,12.13
2022-12-07T04:16:53.567Z,12.75
2022-12-07T04:19:23.212Z,12.73
2022-12-07T04:21:51.004Z,13.23
2022-12-07T04:24:19.686Z,12.88
2022-12-07T04:26:48.694Z,13.07
2022-12-07T04:29:17.437Z,12.73
2022-12-07T04:31:45.809Z,12.20
2022-12-07T04:34:18.337Z,12.50
2022-12-07T04:36:47.872Z,12.63
2022-12-07T04:39:23.364Z,11.80
2022-12-07T04:41:51.531Z,11.85
2022-12-07T04:44:19.649Z,11.60
2022-12-07T04:46:48.605Z,11.50
2022-12-07T04:49:18.350Z,11.75
2022-12-07T04:51:46.516Z,12.60
2022-12-07T04:54:15.594Z,11.82
2022-12-07T04:56:43.611Z,11.73
2022-12-07T04:59:11.783Z,12.05
2022-12-07T05:01:39.984Z,11.68
2022-12-07T05:04:08.063Z,12.32
2022-12-07T05:06:37.681Z,11.75
2022-12-07T05:09:06.201Z,11.88
2022-12-07T05:11:39.837Z,11.93
2022-12-07T05:14:11.780Z,12.43
2022-12-07T05:16:39.996Z,11.57
2022-12-07T05:19:08.426Z,12.10
2022-12-07T05:21:38.208Z,11.35
2022-12-07T05:24:07.083Z,12.00
2022-12-07T05:26:35.120Z,11.88
2022-12-07T05:29:02.941Z,11.63
2022-12-07T05:31:31.181Z,11.25
2022-12-07T05:33:59.127Z,11.95
2022-12-07T05:36:29.466Z,11.50
2022-12-07T05:38:58.678Z,11.50
2022-12-07T05:41:52.453Z,11.38
2022-12-07T05:44:20.332Z,11.38
2022-12-07T05:46:48.137Z,11.00
2022-12-07T05:49:16.018Z,11.00
2022-12-07T05:51:44.065Z,10.98
2022-12-07T05:54:13.372Z,10.68
2022-12-07T05:56:41.168Z,10.93
2022-12-07T05:59:27.540Z,10.27
2022-12-07T06:01:57.288Z,10.82
2022-12-07T06:04:26.611Z,10.40
2022-12-07T06:06:55.202Z,10.65
2022-12-07T06:09:25.707Z,10.63
2022-12-07T06:12:11.747Z,10.20
2022-12-07T06:14:39.748Z,10.30
2022-12-07T06:17:08.347Z,10.10
2022-12-07T06:19:36.696Z,10.02
2022-12-07T06:22:05.441Z,9.90
2022-12-07T06:24:35.333Z,10.40
2022-12-07T06:27:03.431Z,9.80
2022-12-07T06:29:31.318Z,10.45
2022-12-07T06:31:59.540Z,9.77
2022-12-07T06:34:27.987Z,9.82
2022-12-07T06:36:56.725Z,8.82
2022-12-07T06:39:26.159Z,9.55
2022-12-07T06:41:55.748Z,8.48
2022-12-07T06:44:24.254Z,8.35
2022-12-07T06:47:06.646Z,8.95
2022-12-07T06:49:40.501Z,8.68
2022-12-07T06:52:08.352Z,8.68
2022-12-07T06:54:36.158Z,8.23
2022-12-07T06:57:05.389Z,8.20
2022-12-07T06:59:33.181Z,8.10
2022-12-07T07:02:01.002Z,7.97
2022-12-07T07:04:28.913Z,8.48
2022-12-07T07:06:59.970Z,8.85
2022-12-07T07:09:28.387Z,8.07
2022-12-07T07:11:56.217Z,8.05
2022-12-07T07:14:25.485Z,7.63
2022-12-07T07:16:53.491Z,7.63
2022-12-07T07:19:21.427Z,7.40
2022-12-07T07:21:49.237Z,8.50
2022-12-07T07:24:17.358Z,8.40
2022-12-07T07:26:45.429Z,9.27
2022-12-07T07:29:13.206Z,8.57
2022-12-07T07:31:42.466Z,8.73
2022-12-07T07:34:10.268Z,8.48
2022-12-07T07:36:38.212Z,8.32
2022-12-07T07:39:06.436Z,8.45
2022-12-07T07:41:34.289Z,8.65
2022-12-07T07:44:02.141Z,8.93
2022-12-07T07:46:30.011Z,9.23
2022-12-07T07:48:59.220Z,9.18
2022-12-07T07:51:27.016Z,9.25
2022-12-07T07:53:54.841Z,8.45
2022-12-07T07:56:22.736Z,8.60
2022-12-07T07:58:53.804Z,9.48
2022-12-07T08:01:21.642Z,8.48
2022-12-07T08:03:49.821Z,8.82
2022-12-07T08:06:18.982Z,9.50
2022-12-07T08:08:46.848Z,9.48
2022-12-07T08:11:14.726Z,10.30
2022-12-07T08:13:42.531Z,9.70
2022-12-07T08:16:12.577Z,10.25
2022-12-07T08:18:42.087Z,9.13
2022-12-07T08:21:14.842Z,9.15
2022-12-07T08:23:44.357Z,9.38
2022-12-07T08:26:17.736Z,9.75
2022-12-07T08:28:46.621Z,9.65
2022-12-07T08:31:16.814Z,9.25
2022-12-07T08:33:46.947Z,9.02
2022-12-07T08:36:15.275Z,9.63
2022-12-07T08:39:01.352Z,8.70
2022-12-07T08:41:32.516Z,9.13
2022-12-07T08:44:00.386Z,9.57
2022-12-07T08:46:34.242Z,8.55
2022-12-07T08:49:06.621Z,8.68
2022-12-07T08:51:34.878Z,8.88
2022-12-07T08:54:08.555Z,9.38
2022-12-07T08:56:36.925Z,8.60
2022-12-07T08:59:05.450Z,9.07
2022-12-07T09:01:33.814Z,7.93
2022-12-07T09:04:01.749Z,9.02
2022-12-07T09:06:30.299Z,9.00
2022-12-07T09:09:01.301Z,8.38
2022-12-07T09:11:30.472Z,8.60
2022-12-07T09:13:58.341Z,8.60
2022-12-07T09:16:26.246Z,8.23
2022-12-07T09:18:54.105Z,8.30
2022-12-07T09:21:21.889Z,8.50
2022-12-07T09:23:49.838Z,9.02
2022-12-07T09:26:17.781Z,7.97
2022-12-07T09:28:46.948Z,7.78
2022-12-07T09:31:23.859Z,8.05
2022-12-07T09:33:56.411Z,8.30
2022-12-07T09:36:24.441Z,7.13
2022-12-07T09:38:52.340Z,7.85
2022-12-07T09:41:20.686Z,7.88
2022-12-07T09:43:49.897Z,7.80
2022-12-07T09:46:21.327Z,7.57
2022-12-07T09:48:51.468Z,7.40
2022-12-07T09:51:24.306Z,7.43
2022-12-07T09:53:55.183Z,7.85
2022-12-07T09:56:24.634Z,7.75
2022-12-07T09:59:00.846Z,7.20
2022-12-07T10:01:32.282Z,7.03
2022-12-07T10:04:07.844Z,7.25
2022-12-07T10:06:35.666Z,7.30
2022-12-07T10:09:04.364Z,7.00
2022-12-07T10:11:32.199Z,8.07
2022-12-07T10:14:14.164Z,6.78
2022-12-07T10:16:43.448Z,7.75
2022-12-07T10:19:25.039Z,6.70
2022-12-07T10:22:05.345Z,6.78
2022-12-07T10:24:33.696Z,7.05
2022-12-07T10:27:01.538Z,7.85
2022-12-07T10:29:34.279Z,7.03
2022-12-07T10:32:04.655Z,7.18
2022-12-07T10:34:40.973Z,7.20
2022-12-07T10:37:17.474Z,6.80
2022-12-07T10:39:47.145Z,6.68
2022-12-07T10:42:20.236Z,6.28
2022-12-07T10:44:50.063Z,6.55
2022-12-07T10:47:36.624Z,6.88
2022-12-07T10:50:54.470Z,6.22
2022-12-07T10:53:41.236Z,5.80
2022-12-07T10:56:28.591Z,6.38
2022-12-07T10:59:10.473Z,5.70
2022-12-07T11:01:47.337Z,5.57
2022-12-07T11:04:27.252Z,5.93
2022-12-07T11:07:03.664Z,5.95
2022-12-07T11:10:08.514Z,5.97
2022-12-07T11:12:54.817Z,5.95
2022-12-07T11:15:26.881Z,5.47
2022-12-07T11:18:03.302Z,5.38
2022-12-07T11:20:40.197Z,5.55
2022-12-07T11:23:18.845Z,5.53
2022-12-07T11:25:55.176Z,5.28
2022-12-07T11:28:35.733Z,4.80
2022-12-07T11:31:14.632Z,4.82
2022-12-07T11:33:47.913Z,5.25
2022-12-07T11:36:33.048Z,4.57
2022-12-07T11:39:06.354Z,5.10
2022-12-07T11:41:38.706Z,4.75
2022-12-07T11:44:09.701Z,4.57
2022-12-07T11:46:51.761Z,4.20
2022-12-07T11:49:28.745Z,3.83
2022-12-07T11:52:02.194Z,4.07
2022-12-07T11:54:36.832Z,4.30
2022-12-07T11:57:13.361Z,4.00
2022-12-07T11:59:51.051Z,4.30
2022-12-07T12:02:25.272Z,4.47
2022-12-07T12:05:00.452Z,4.30
2022-12-07T12:10:22.944Z,3.90
2022-12-07T12:16:22.078Z,3.85
2022-12-07T12:19:12.803Z,3.65
2022-12-07T12:21:42.951Z,3.88
2022-12-07T12:24:16.240Z,3.95
2022-12-07T12:26:52.817Z,3.65
2022-12-07T12:29:28.129Z,3.80
2022-12-07T12:32:15.389Z,3.88
2022-12-07T12:35:00.095Z,3.28
2022-12-07T12:37:48.968Z,3.58
2022-12-07T12:40:46.909Z,3.40
2022-12-07T12:43:43.150Z,4.05
2022-12-07T12:46:50.915Z,3.58
2022-12-07T12:49:37.939Z,3.75
2022-12-07T12:52:53.353Z,3.80
2022-12-07T12:55:50.336Z,4.13
2022-12-07T12:58:32.500Z,4.35
2022-12-07T13:01:46.436Z,3.85
2022-12-07T13:04:39.523Z,3.90
2022-12-07T13:07:15.455Z,4.00
2022-12-07T13:09:46.385Z,4.53
2022-12-07T13:12:18.057Z,4.03
2022-12-07T13:15:01.087Z,4.05
2022-12-07T13:17:58.818Z,3.85
2022-12-07T13:20:57.728Z,4.22
2022-12-07T13:23:31.964Z,4.25
2022-12-07T13:26:17.867Z,3.60
2022-12-07T13:28:49.758Z,4.13
2022-12-07T13:31:29.443Z,3.55
2022-12-07T13:33:57.299Z,3.50
2022-12-07T13:36:27.024Z,3.50
2022-12-07T13:38:57.354Z,3.80
2022-12-07T13:41:26.713Z,3.17
2022-12-07T13:44:03.661Z,3.40
2022-12-07T13:46:44.130Z,3.45
2022-12-07T13:49:20.463Z,3.42
2022-12-07T13:51:48.331Z,3.53
2022-12-07T13:54:16.840Z,3.10
2022-12-07T13:56:45.238Z,3.75
2022-12-07T13:59:19.035Z,4.30
2022-12-07T14:01:48.915Z,3.97
2022-12-07T14:04:36.985Z,3.45
2022-12-07T14:07:24.539Z,3.30
2022-12-07T14:09:57.434Z,2.97
2022-12-07T14:12:26.385Z,3.80
2022-12-07T14:14:57.099Z,3.83
2022-12-07T14:17:26.767Z,3.05
2022-12-07T14:19:57.437Z,3.03
2022-12-07T14:22:28.853Z,3.08
2022-12-07T14:25:16.211Z,3.65
2022-12-07T14:27:51.384Z,3.55
2022-12-07T14:30:21.587Z,3.33
2022-12-07T14:32:52.872Z,3.47
2022-12-07T14:35:20.786Z,3.40
2022-12-07T14:37:50.444Z,3.70
2022-12-07T14:40:20.171Z,3.42
2022-12-07T14:42:50.439Z,3.42
2022-12-07T14:45:21.849Z,3.72
2022-12-07T14:53:35.856Z,3.45
2022-12-07T14:56:06.262Z,3.92
2022-12-07T14:58:34.473Z,3.83
2022-12-07T15:01:03.820Z,3.78
2022-12-07T15:03:31.787Z,3.90
2022-12-07T15:05:59.743Z,4.15
2022-12-07T15:08:27.628Z,4.22
2022-12-07T15:10:55.503Z,4.28
2022-12-07T15:13:40.755Z,4.55
2022-12-07T15:16:13.202Z,4.15
2022-12-07T15:18:45.480Z,4.18
2022-12-07T15:21:20.974Z,3.47
2022-12-07T15:23:49.984Z,3.75
2022-12-07T15:26:17.794Z,3.58
2022-12-07T15:28:47.039Z,3.60
2022-12-07T15:31:53.418Z,3.78
2022-12-07T15:34:06.135Z,3.42
2022-12-07T15:36:35.729Z,3.60
2022-12-07T15:39:14.221Z,3.53
2022-12-07T15:41:43.696Z,3.70
2022-12-07T15:44:31.573Z,3.22
2022-12-07T15:47:01.495Z,3.67
2022-12-07T15:49:30.465Z,3.45
2022-12-07T15:51:58.542Z,3.95
2022-12-07T15:54:28.626Z,3.78
2022-12-07T15:56:59.853Z,3.60
2022-12-07T15:59:29.235Z,3.30
2022-12-07T16:01:57.496Z,3.40
2022-12-07T16:04:28.797Z,3.67
2022-12-07T16:06:57.557Z,3.70
2022-12-07T16:09:27.660Z,3.75
2022-12-07T16:11:55.488Z,3.30
2022-12-07T16:14:23.804Z,3.50
2022-12-07T16:16:51.986Z,3.67
2022-12-07T16:19:19.796Z,4.35
2022-12-07T16:21:49.043Z,3.70
2022-12-07T16:24:17.285Z,4.18
2022-12-07T16:26:49.837Z,3.88
2022-12-07T16:29:19.975Z,4.30
2022-12-07T16:31:48.318Z,3.83
2022-12-07T16:34:16.321Z,3.50
2022-12-07T16:39:33.445Z,3.55
2022-12-07T16:42:01.311Z,3.70
2022-12-07T16:44:29.117Z,3.55
2022-12-07T16:46:57.088Z,3.60
2022-12-07T16:49:25.794Z,3.92
2022-12-07T16:52:18.287Z,4.10
2022-12-07T16:54:43.927Z,4.20
2022-12-07T16:57:14.315Z,3.55
2022-12-07T16:59:47.345Z,3.58
2022-12-07T17:02:15.144Z,4.10
2022-12-07T17:04:43.370Z,3.80
2022-12-07T17:07:11.628Z,4.88
2022-12-07T17:09:39.544Z,4.75
2022-12-07T17:12:08.898Z,4.50
2022-12-07T17:14:55.001Z,4.22
2022-12-07T17:17:22.771Z,3.97
2022-12-07T17:19:50.583Z,3.95
2022-12-07T17:22:18.538Z,4.38
2022-12-07T17:24:46.314Z,3.92
2022-12-07T17:27:15.510Z,4.20
2022-12-07T17:29:43.400Z,3.90
2022-12-07T17:32:11.293Z,4.60
2022-12-07T17:34:39.121Z,4.13
2022-12-07T17:37:06.944Z,5.05
2022-12-07T17:39:34.809Z,4.28
2022-12-07T17:42:20.244Z,4.43
2022-12-07T17:44:49.386Z,5.15
2022-12-07T17:47:18.571Z,4.57
2022-12-07T17:49:46.766Z,4.40
2022-12-07T17:52:32.569Z,4.57
2022-12-07T17:55:02.145Z,4.40
2022-12-07T17:57:30.412Z,4.93
2022-12-07T17:59:59.669Z,4.95
2022-12-07T18:02:27.525Z,4.97
2022-12-07T18:04:55.666Z,5.13
2022-12-07T18:07:23.566Z,4.95
2022-12-07T18:09:51.743Z,5.03
2022-12-07T18:12:19.575Z,5.32
2022-12-07T18:14:48.550Z,5.82
2022-12-07T18:17:17.863Z,5.68
2022-12-07T18:19:45.858Z,5.82
2022-12-07T18:22:13.640Z,5.35
2022-12-07T18:24:41.425Z,4.65
2022-12-07T18:27:09.432Z,5.70
2022-12-07T18:29:37.252Z,5.60
2022-12-07T18:32:06.076Z,5.68
2022-12-07T18:34:35.292Z,5.00
2022-12-07T18:37:03.100Z,5.25
2022-12-07T18:39:33.929Z,5.43
2022-12-07T18:42:02.300Z,5.53
2022-12-07T18:44:30.348Z,5.32
2022-12-07T18:46:58.140Z,5.30
2022-12-07T18:49:25.960Z,5.35
2022-12-07T18:51:55.126Z,5.25
2022-12-07T18:54:22.964Z,5.22
2022-12-07T18:56:50.765Z,4.97
2022-12-07T18:59:36.022Z,5.05
2022-12-07T19:02:04.199Z,5.13
2022-12-07T19:04:32.190Z,5.40
2022-12-07T19:07:01.659Z,6.32
2022-12-07T19:09:29.529Z,6.72
2022-12-07T19:12:01.049Z,5.93
2022-12-07T19:14:30.696Z,6.13
2022-12-07T19:17:00.399Z,6.00
2022-12-07T19:19:32.423Z,5.60
2022-12-07T19:22:02.445Z,5.85
2022-12-07T19:24:31.021Z,5.97
2022-12-07T19:26:59.661Z,5.47
2022-12-07T19:29:31.070Z,5.72
2022-12-07T19:31:59.271Z,5.43
2022-12-07T19:34:27.098Z,5.57
2022-12-07T19:36:55.025Z,5.13
2022-12-07T19:39:24.590Z,4.97
2022-12-07T19:41:52.390Z,5.28
2022-12-07T19:44:22.780Z,5.22
2022-12-07T19:46:51.379Z,5.22
2022-12-07T19:49:20.520Z,5.43
2022-12-07T19:51:49.722Z,5.50
2022-12-07T19:54:20.061Z,5.20
2022-12-07T19:56:50.833Z,5.18
2022-12-07T19:59:20.306Z,5.60
2022-12-07T20:01:48.342Z,5.00
2022-12-07T20:04:19.636Z,5.22
2022-12-07T20:06:47.908Z,5.40
2022-12-07T20:09:15.795Z,5.35
2022-12-07T20:12:01.332Z,5.00
2022-12-07T20:14:31.424Z,4.47
2022-12-07T20:16:59.672Z,4.80
2022-12-07T20:19:27.603Z,4.95
2022-12-07T20:21:55.391Z,4.93
2022-12-07T20:24:25.328Z,4.75
2022-12-07T20:26:54.834Z,5.03
2022-12-07T20:29:24.237Z,4.55
2022-12-07T20:31:55.110Z,5.03
2022-12-07T20:34:23.269Z,4.70
2022-12-07T20:36:51.129Z,4.63
2022-12-07T20:39:19.076Z,4.78
2022-12-07T20:42:04.353Z,4.88
2022-12-07T20:44:32.484Z,4.47
2022-12-07T20:47:01.850Z,4.70
2022-12-07T20:49:29.644Z,4.45
2022-12-07T20:51:57.467Z,4.60
2022-12-07T20:54:25.360Z,4.47
2022-12-07T20:56:53.140Z,4.78
2022-12-07T20:59:20.986Z,4.30
2022-12-07T21:01:48.911Z,4.30
2022-12-07T21:04:18.410Z,4.60
2022-12-07T21:06:46.258Z,4.22
2022-12-07T21:09:14.049Z,4.40
2022-12-07T21:11:42.046Z,4.55
2022-12-07T21:14:10.285Z,4.32
2022-12-07T21:16:38.080Z,4.55
2022-12-07T21:19:06.453Z,4.28
2022-12-07T21:21:35.740Z,4.40
2022-12-07T21:24:05.278Z,4.25
2022-12-07T21:26:34.576Z,3.90
2022-12-07T21:29:03.104Z,3.92
2022-12-07T21:31:31.044Z,4.10
2022-12-07T21:33:59.076Z,4.18
2022-12-07T21:36:27.496Z,4.05
2022-12-07T21:38:57.371Z,4.72
2022-12-07T21:41:27.452Z,3.97
2022-12-07T21:43:55.742Z,3.80
2022-12-07T21:46:29.789Z,4.55
2022-12-07T21:49:03.139Z,4.07
2022-12-07T21:51:31.675Z,3.97
2022-12-07T21:54:02.485Z,4.30
2022-12-07T21:56:32.106Z,4.40
2022-12-07T21:59:02.008Z,4.15
2022-12-07T22:01:35.469Z,4.43
2022-12-07T22:04:05.087Z,4.13
2022-12-07T22:06:34.269Z,4.30
2022-12-07T22:09:04.877Z,4.18
2022-12-07T22:11:32.717Z,3.90
2022-12-07T22:14:17.884Z,4.30
2022-12-07T22:16:45.686Z,4.10
2022-12-07T22:19:13.655Z,4.00
2022-12-07T22:21:41.436Z,4.20
2022-12-07T22:24:12.883Z,4.57
2022-12-07T22:26:40.886Z,4.18
2022-12-07T22:29:08.712Z,4.07
2022-12-07T22:31:38.022Z,4.40
2022-12-07T22:34:05.993Z,4.28
2022-12-07T22:36:33.974Z,4.65
2022-12-07T22:39:02.515Z,4.40
2022-12-07T22:41:33.155Z,4.50
2022-12-07T22:44:01.693Z,4.80
2022-12-07T22:46:29.648Z,4.18
2022-12-07T22:48:57.498Z,3.97
2022-12-07T22:51:27.515Z,4.30
2022-12-07T22:53:56.071Z,4.45
2022-12-07T22:56:24.333Z,4.32
2022-12-07T22:58:53.523Z,4.50
2022-12-07T23:01:24.379Z,4.60
2022-12-07T23:03:52.682Z,4.45
2022-12-07T23:06:24.514Z,4.55
2022-12-07T23:08:53.414Z,4.57
2022-12-07T23:11:40.853Z,4.93
2022-12-07T23:14:14.253Z,4.88
2022-12-07T23:16:42.435Z,4.60
2022-12-07T23:19:10.417Z,5.13
2022-12-07T23:21:38.255Z,5.43
2022-12-07T23:24:07.109Z,5.22
2022-12-07T23:26:34.892Z,5.32
2022-12-07T23:29:02.689Z,5.00
2022-12-07T23:31:31.839Z,5.40
2022-12-07T23:33:59.716Z,4.90
2022-12-07T23:36:29.217Z,4.75
2022-12-07T23:38:59.126Z,4.82
2022-12-07T23:41:31.615Z,5.43
2022-12-07T23:44:01.644Z,5.22
2022-12-07T23:46:33.221Z,5.30
2022-12-07T23:49:03.093Z,5.22
2022-12-07T23:51:31.033Z,5.50
2022-12-07T23:54:00.687Z,5.10
2022-12-07T23:56:29.984Z,5.07
2022-12-07T23:58:58.742Z,5.10
